Time;durP1;ratioP1;P1;durP2;ratioP2;P2;SDS_P1;SDS_P2;PMS_P1;PMS_P2;Temp;Humidity;BMP_temperature;BMP_pressure;BME280_temperature;BME280_humidity;BME280_pressure;Samples;Min_cycle;Max_cycle;Signal;HPM_P1;HPM_P2
2022/10/12 00:07:30;;;;;;;33.83;21.70;;;;;;;-141.28;100.00;50106.47;5111507;27;1547392;-77
2022/10/12 00:09:57;;;;;;;35.57;21.30;;;;;;;-141.28;100.00;49733.56;5168944;27;20658;-79
2022/10/12 00:12:24;;;;;;;40.17;23.67;;;;;;;-141.28;100.00;49545.19;5151821;27;20201;-76
2022/10/12 00:14:53;;;;;;;43.07;25.83;;;;;;;-141.28;100.00;49415.69;5171148;27;20200;-76
2022/10/12 00:17:20;;;;;;;40.30;24.67;;;;;;;-141.28;100.00;49360.75;5169374;27;20205;-76
2022/10/12 00:19:47;;;;;;;40.77;23.53;;;;;;;-141.28;100.00;49325.41;5160190;27;20200;-77
2022/10/12 00:22:14;;;;;;;42.23;25.47;;;;;;;-141.28;100.00;49299.91;5171045;27;20197;-76
2022/10/12 00:24:42;;;;;;;51.13;28.60;;;;;;;-141.28;100.00;49278.31;5171217;27;20295;-76
2022/10/12 00:27:11;;;;;;;59.53;30.50;;;;;;;-141.28;100.00;49286.16;5170843;27;20738;-76
2022/10/12 00:29:38;;;;;;;55.40;31.50;;;;;;;-141.28;100.00;49266.56;5171593;27;20205;-79
2022/10/12 00:32:05;;;;;;;50.30;29.97;;;;;;;-141.28;100.00;49250.84;5172217;27;20611;-76
2022/10/12 00:34:32;;;;;;;50.03;29.77;;;;;;;-141.28;100.00;49227.31;5166708;27;20274;-75
2022/10/12 00:36:59;;;;;;;47.20;27.93;;;;;;;-141.28;100.00;49119.38;5176067;27;20231;-76
2022/10/12 00:39:26;;;;;;;41.90;24.30;;;;;;;-141.28;100.00;49207.69;5177449;27;20644;-80
2022/10/12 00:41:55;;;;;;;35.00;21.80;;;;;;;-141.28;100.00;49182.19;5179752;27;20205;-77
2022/10/12 00:44:40;;;;;;;33.93;20.90;;;;;;;-141.28;100.00;49117.44;5176844;27;20274;-76
2022/10/12 00:47:16;;;;;;;32.83;20.07;;;;;;;-141.28;100.00;49078.19;5173702;27;20228;-80
2022/10/12 00:49:45;;;;;;;41.27;21.37;;;;;;;-141.28;100.00;49044.84;5170530;27;20303;-77
2022/10/12 00:52:15;;;;;;;33.03;20.53;;;;;;;-141.28;100.00;49025.22;5170344;27;20211;-80
2022/10/12 00:54:47;;;;;;;36.30;21.10;;;;;;;-141.28;100.00;49003.63;5170785;27;20571;-77
2022/10/12 00:57:18;;;;;;;40.10;21.23;;;;;;;-141.28;100.00;48976.16;5136142;27;20727;-79
2022/10/12 00:59:53;;;;;;;42.60;23.00;;;;;;;-141.28;100.00;48987.94;5149338;27;20276;-75
2022/10/12 01:02:21;;;;;;;45.97;23.67;;;;;;;-141.28;100.00;48925.16;5149499;27;20197;-77
2022/10/12 01:04:48;;;;;;;47.07;25.03;;;;;;;-141.28;100.00;48929.06;5149248;27;20724;-77
2022/10/12 01:07:15;;;;;;;41.30;23.83;;;;;;;-141.28;100.00;48923.19;5142556;27;20730;-77
2022/10/12 01:09:42;;;;;;;52.77;28.10;;;;;;;-141.28;100.00;48929.06;5135705;27;20198;-77
2022/10/12 01:12:10;;;;;;;45.63;25.30;;;;;;;-141.28;100.00;48933.00;5135499;27;20202;-77
2022/10/12 01:14:39;;;;;;;49.70;25.37;;;;;;;-141.28;100.00;48931.03;5135429;27;20198;-76
2022/10/12 01:17:22;;;;;;;37.67;22.17;;;;;;;-141.28;100.00;48850.59;5135167;27;20230;-78
2022/10/12 01:20:13;;;;;;;36.63;22.17;;;;;;;-141.28;100.00;48860.41;5137020;27;20229;-79
2022/10/12 01:22:45;;;;;;;27.57;18.83;;;;;;;-141.28;100.00;48838.81;5135829;27;20198;-78
2022/10/12 01:25:28;;;;;;;25.17;17.23;;;;;;;-141.28;100.00;48842.75;5117128;27;20202;-78
2022/10/12 01:28:05;;;;;;;26.53;16.63;;;;;;;-141.28;100.00;48832.94;5135813;27;20213;-77
2022/10/12 01:30:38;;;;;;;27.43;17.90;;;;;;;-141.28;100.00;48830.97;5161725;27;20206;-76
2022/10/12 01:33:15;;;;;;;28.37;17.30;;;;;;;-141.28;100.00;48846.69;5161508;27;20209;-76
2022/10/12 01:35:49;;;;;;;31.73;19.13;;;;;;;-141.28;100.00;48860.41;5118782;27;20226;-77
2022/10/12 01:38:27;;;;;;;32.87;20.80;;;;;;;-141.28;100.00;48862.38;5122859;27;20206;-77
2022/10/12 01:41:02;;;;;;;39.00;20.73;;;;;;;-141.28;100.00;48866.28;5134738;27;20206;-74
2022/10/12 01:43:35;;;;;;;31.03;21.17;;;;;;;-141.28;100.00;48830.97;5116693;27;20231;-76
2022/10/12 01:46:49;;;;;;;32.03;18.80;;;;;;;-141.28;100.00;48838.81;5131324;27;20198;-76
2022/10/12 01:49:24;;;;;;;34.13;18.83;;;;;;;-141.28;100.00;48827.06;5072759;27;20203;-78
2022/10/12 01:52:22;;;;;;;25.53;17.43;;;;;;;-141.28;100.00;48811.34;5135109;27;20283;-77
2022/10/12 01:55:17;;;;;;;31.30;17.73;;;;;;;-141.28;100.00;48732.88;5124164;27;20240;-81
2022/10/12 01:58:01;;;;;;;27.00;16.97;;;;;;;-141.28;100.00;48636.75;5123005;27;20289;-78
2022/10/12 02:00:29;;;;;;;25.80;17.77;;;;;;;-141.28;100.00;48732.88;5135263;27;20199;-76
2022/10/12 02:03:05;;;;;;;28.20;18.00;;;;;;;-141.28;100.00;48791.75;5134567;27;20266;-79
2022/10/12 02:05:38;;;;;;;26.50;16.87;;;;;;;-141.28;100.00;48856.47;5134430;27;20190;-78
2022/10/12 02:08:12;;;;;;;30.07;18.50;;;;;;;-141.28;100.00;48838.81;5134881;27;20199;-79
2022/10/12 02:10:45;;;;;;;31.50;18.57;;;;;;;-141.28;100.00;48878.06;5135194;27;20213;-78
2022/10/12 02:13:15;;;;;;;32.20;19.83;;;;;;;-141.28;100.00;48887.88;5143048;27;20238;-75
2022/10/12 02:15:44;;;;;;;34.87;20.70;;;;;;;-141.28;100.00;48913.38;5141691;27;20654;-76
2022/10/12 02:18:15;;;;;;;33.90;19.97;;;;;;;-141.28;100.00;48925.16;5143075;27;20242;-76
2022/10/12 02:20:46;;;;;;;28.57;18.03;;;;;;;-141.28;100.00;48936.91;5137477;27;20226;-76
2022/10/12 02:23:14;;;;;;;29.13;18.50;;;;;;;-141.28;100.00;48962.44;5134448;27;20214;-77
2022/10/12 02:25:42;;;;;;;29.57;17.27;;;;;;;-141.28;100.00;48960.47;5134585;27;20293;-75
2022/10/12 02:28:12;;;;;;;26.10;17.03;;;;;;;-141.28;100.00;48991.84;5134011;27;20202;-76
2022/10/12 02:30:45;;;;;;;33.87;20.20;;;;;;;-141.28;100.00;48999.72;5135061;27;20264;-76
2022/10/12 02:33:20;;;;;;;36.67;20.27;;;;;;;-141.28;100.00;49005.59;5134033;27;20198;-78
2022/10/12 02:35:54;;;;;;;29.87;18.83;;;;;;;-141.28;100.00;48999.72;5115662;27;20260;-77
2022/10/12 02:38:28;;;;;;;38.93;21.57;;;;;;;-141.28;100.00;48999.72;5121181;27;20643;-79
2022/10/12 02:41:00;;;;;;;41.07;21.37;;;;;;;-141.28;100.00;48987.94;5134740;27;20209;-77
2022/10/12 02:43:34;;;;;;;34.17;18.83;;;;;;;-141.28;100.00;48991.84;5136450;27;20201;-76
2022/10/12 02:46:05;;;;;;;38.67;19.53;;;;;;;-141.28;100.00;48989.91;5137137;27;20202;-77
2022/10/12 02:48:35;;;;;;;31.10;18.27;;;;;;;-141.28;100.00;49013.44;5136361;27;20198;-76
2022/10/12 02:51:04;;;;;;;31.77;18.63;;;;;;;-141.28;100.00;48972.25;5117101;27;20230;-77
2022/10/12 02:53:31;;;;;;;26.50;17.13;;;;;;;-141.28;100.00;49019.31;5125487;27;20205;-79
2022/10/12 02:56:02;;;;;;;26.07;17.23;;;;;;;-141.28;100.00;49048.75;5134696;27;20226;-78
2022/10/12 02:58:29;;;;;;;30.70;16.10;;;;;;;-141.28;100.00;49038.94;5135052;27;20194;-78
2022/10/12 03:00:56;;;;;;;27.20;16.43;;;;;;;-141.28;100.00;49070.34;5133775;27;20286;-78
2022/10/12 03:03:24;;;;;;;22.57;15.87;;;;;;;-141.28;100.00;49058.56;5133508;27;20198;-78
2022/10/12 03:06:03;;;;;;;25.03;15.10;;;;;;;-141.28;100.00;49007.56;5120292;27;20198;-77
2022/10/12 03:08:31;;;;;;;31.73;15.67;;;;;;;-141.28;100.00;49082.13;5133504;27;20201;-77
2022/10/12 03:11:02;;;;;;;28.43;17.87;;;;;;;-141.28;100.00;49027.19;5133283;27;20201;-77
2022/10/12 03:13:29;;;;;;;29.87;18.83;;;;;;;-141.28;100.00;49070.34;5133470;27;20243;-75
2022/10/12 03:16:02;;;;;;;36.40;19.13;;;;;;;-141.28;100.00;49066.41;5132986;27;20282;-77
2022/10/12 03:18:29;;;;;;;27.70;16.17;;;;;;;-141.28;100.00;49027.19;5132917;27;20267;-77
2022/10/12 03:20:56;;;;;;;27.00;16.33;;;;;;;-141.28;100.00;49089.97;5133302;27;20213;-78
2022/10/12 03:23:22;;;;;;;30.77;16.63;;;;;;;-141.28;100.00;49086.03;5133290;27;20205;-77
2022/10/12 03:25:51;;;;;;;30.73;16.57;;;;;;;-141.28;100.00;49097.81;5133807;27;20575;-77
2022/10/12 03:28:18;;;;;;;26.47;15.80;;;;;;;-141.28;100.00;49129.19;5133379;27;20198;-79
2022/10/12 03:30:46;;;;;;;28.47;15.77;;;;;;;-141.28;100.00;49095.84;5132918;27;20672;-78
2022/10/12 03:33:13;;;;;;;28.40;15.70;;;;;;;-141.28;100.00;49113.50;5132837;27;20205;-76
2022/10/12 03:35:40;;;;;;;24.70;15.87;;;;;;;-141.28;100.00;49111.53;5133181;27;20198;-79
2022/10/12 03:38:07;;;;;;;28.30;16.70;;;;;;;-141.28;100.00;49117.44;5134525;27;20230;-78
2022/10/12 03:40:34;;;;;;;25.47;16.87;;;;;;;-141.28;100.00;49125.28;5134905;27;20206;-77
2022/10/12 03:43:03;;;;;;;25.40;16.87;;;;;;;-141.28;100.00;49125.28;5135116;27;20629;-76
2022/10/12 03:45:30;;;;;;;25.70;15.93;;;;;;;-141.28;100.00;49105.66;5134652;27;20205;-77
2022/10/12 03:47:57;;;;;;;28.27;17.47;;;;;;;-141.28;100.00;49089.97;5134440;27;20194;-75
2022/10/12 03:50:24;;;;;;;25.17;16.97;;;;;;;-141.28;100.00;49119.38;5133641;27;20679;-76
2022/10/12 03:52:51;;;;;;;24.90;16.23;;;;;;;-141.28;100.00;49119.38;5131428;27;20198;-77
2022/10/12 03:55:19;;;;;;;28.13;16.57;;;;;;;-141.28;100.00;49115.47;5133559;27;20198;-78
2022/10/12 03:57:45;;;;;;;30.97;16.30;;;;;;;-141.28;100.00;49058.56;5132188;28;20221;-76
2022/10/12 04:00:15;;;;;;;33.80;15.87;;;;;;;-141.28;100.00;49129.19;5136044;28;20190;-76
2022/10/12 04:02:42;;;;;;;31.77;15.83;;;;;;;-141.28;100.00;49121.34;5135132;28;20194;-75
2022/10/12 04:05:09;;;;;;;21.63;15.50;;;;;;;-141.28;100.00;49140.97;5144513;28;20203;-75
2022/10/12 04:07:36;;;;;;;22.43;15.20;;;;;;;-141.28;100.00;49125.28;5143352;28;20230;-77
2022/10/12 04:10:05;;;;;;;24.57;15.70;;;;;;;-141.28;100.00;49160.59;5132188;28;20583;-78
2022/10/12 04:12:32;;;;;;;27.03;15.50;;;;;;;-141.28;100.00;49137.06;5120903;28;20255;-78
2022/10/12 04:14:59;;;;;;;33.33;17.73;;;;;;;-141.28;100.00;49152.75;5132633;28;20206;-78
2022/10/12 04:17:27;;;;;;;27.63;15.77;;;;;;;-141.28;100.00;49148.81;5132590;28;20238;-77
2022/10/12 04:19:54;;;;;;;28.97;16.40;;;;;;;-141.28;100.00;49148.81;5132407;28;20273;-77
2022/10/12 04:22:22;;;;;;;28.53;15.80;;;;;;;-141.28;100.00;49150.78;5132370;28;20683;-78
2022/10/12 04:24:49;;;;;;;26.53;16.83;;;;;;;-141.28;100.00;49137.06;5133017;28;20198;-77
2022/10/12 04:27:17;;;;;;;40.07;16.60;;;;;;;-141.28;100.00;49144.91;5133659;28;20694;-79
2022/10/12 04:29:44;;;;;;;24.23;14.67;;;;;;;-141.28;100.00;49144.91;5137962;28;20578;-76
2022/10/12 04:32:11;;;;;;;28.00;14.60;;;;;;;-141.28;100.00;49144.91;5134223;28;20220;-76
2022/10/12 04:34:39;;;;;;;28.13;14.23;;;;;;;-141.28;100.00;49144.91;5133754;28;20202;-76
2022/10/12 04:37:07;;;;;;;32.43;14.90;;;;;;;-141.28;100.00;49150.78;5121114;28;20218;-78
2022/10/12 04:39:35;;;;;;;34.00;15.63;;;;;;;-141.28;100.00;49099.78;5113669;28;20234;-77
2022/10/12 04:42:02;;;;;;;26.43;16.53;;;;;;;-141.28;100.00;49142.94;5133949;27;20635;-79
2022/10/12 04:44:29;;;;;;;30.60;19.20;;;;;;;-141.28;100.00;49144.91;5136409;27;20691;-79
2022/10/12 04:46:56;;;;;;;27.53;17.20;;;;;;;-141.28;100.00;49123.31;5136940;27;20210;-77
2022/10/12 04:49:23;;;;;;;24.17;16.07;;;;;;;-141.28;100.00;49137.06;5136520;27;20202;-76
2022/10/12 04:51:51;;;;;;;29.87;17.73;;;;;;;-141.28;100.00;49164.53;5137783;27;20209;-77
2022/10/12 04:54:19;;;;;;;26.97;16.00;;;;;;;-141.28;100.00;49158.63;5137201;27;20205;-78
2022/10/12 04:56:48;;;;;;;23.30;14.43;;;;;;;-141.28;100.00;49148.81;5136105;27;20230;-79
2022/10/12 04:59:15;;;;;;;23.70;14.63;;;;;;;-141.28;100.00;49168.44;5136118;27;20190;-78
2022/10/12 05:01:42;;;;;;;20.30;13.63;;;;;;;-141.28;100.00;49137.06;5136012;27;20198;-76
2022/10/12 05:04:10;;;;;;;24.77;14.97;;;;;;;-141.28;100.00;49140.97;5135784;27;20206;-76
2022/10/12 05:06:37;;;;;;;25.70;15.90;;;;;;;-141.28;100.00;49133.13;5135367;27;20229;-80
2022/10/12 05:09:05;;;;;;;23.63;16.43;;;;;;;-141.28;100.00;49137.06;5136251;27;20255;-75
2022/10/12 05:11:32;;;;;;;26.13;15.70;;;;;;;-141.28;100.00;49148.81;5117888;27;20237;-77
2022/10/12 05:13:59;;;;;;;25.30;17.00;;;;;;;-141.28;100.00;49093.88;5136849;27;20635;-77
2022/10/12 05:16:28;;;;;;;29.23;17.13;;;;;;;-141.28;100.00;49146.84;5136518;27;20213;-80
2022/10/12 05:18:55;;;;;;;28.03;18.30;;;;;;;-141.28;100.00;49133.13;5135528;27;20198;-80
2022/10/12 05:21:22;;;;;;;31.50;18.33;;;;;;;-141.28;100.00;49117.44;5135205;27;20206;-76
2022/10/12 05:23:51;;;;;;;31.53;20.03;;;;;;;-141.28;100.00;49140.97;5136128;27;20205;-79
2022/10/12 05:26:19;;;;;;;36.33;21.50;;;;;;;-141.28;100.00;49117.44;5135093;27;20201;-76
2022/10/12 05:28:46;;;;;;;42.43;24.43;;;;;;;-141.28;100.00;49093.88;5135159;27;20202;-76
2022/10/12 05:31:13;;;;;;;38.00;23.77;;;;;;;-141.28;100.00;49140.97;5135570;27;20194;-77
2022/10/12 05:33:40;;;;;;;33.13;20.03;;;;;;;-141.28;100.00;49103.69;5135466;27;20194;-79
2022/10/12 05:36:08;;;;;;;33.40;20.77;;;;;;;-141.28;100.00;49093.88;5135216;27;20213;-76
2022/10/12 05:38:36;;;;;;;32.47;18.83;;;;;;;-141.28;100.00;49099.78;5134896;27;20225;-79
2022/10/12 05:41:03;;;;;;;27.13;17.63;;;;;;;-141.28;100.00;49101.72;5135385;27;20660;-76
2022/10/12 05:43:31;;;;;;;29.47;18.43;;;;;;;-141.28;100.00;49086.03;5134858;27;20190;-79
2022/10/12 05:45:58;;;;;;;33.00;18.03;;;;;;;-141.28;100.00;49097.81;5135204;27;20202;-77
2022/10/12 05:48:25;;;;;;;34.23;20.17;;;;;;;-141.28;100.00;49093.88;5134937;27;20198;-79
2022/10/12 05:50:53;;;;;;;45.27;22.23;;;;;;;-141.28;100.00;49097.81;5134825;27;20206;-76
2022/10/12 05:53:20;;;;;;;40.20;21.23;;;;;;;-141.28;100.00;49091.91;5134691;27;20281;-75
2022/10/12 05:55:53;;;;;;;42.73;26.00;;;;;;;-141.28;100.00;49062.50;5134876;27;20214;-75
2022/10/12 05:58:20;;;;;;;35.93;23.60;;;;;;;-141.28;100.00;49093.88;5134396;27;20226;-77
2022/10/12 06:00:48;;;;;;;52.10;25.30;;;;;;;-141.28;100.00;49093.88;5134245;27;20210;-76
2022/10/12 06:03:15;;;;;;;44.57;24.77;;;;;;;-141.28;100.00;49025.22;5134661;27;20212;-76
2022/10/12 06:05:43;;;;;;;35.77;20.97;;;;;;;-141.28;100.00;49121.34;5134427;27;20223;-76
2022/10/12 06:08:10;;;;;;;35.73;19.50;;;;;;;-141.28;100.00;49121.34;5134738;27;20584;-77
2022/10/12 06:10:37;;;;;;;37.57;19.07;;;;;;;-141.28;100.00;49129.19;5134352;27;20198;-75
2022/10/12 06:13:05;;;;;;;26.87;17.00;;;;;;;-141.28;100.00;49042.88;5134655;27;20195;-76
2022/10/12 06:15:32;;;;;;;27.10;16.43;;;;;;;-141.28;100.00;49160.59;5133711;27;20684;-77
2022/10/12 06:18:00;;;;;;;32.73;17.30;;;;;;;-141.28;100.00;49156.66;5134530;27;20623;-77
2022/10/12 06:20:27;;;;;;;30.87;17.37;;;;;;;-141.28;100.00;49088.00;5121169;27;20625;-77
2022/10/12 06:22:54;;;;;;;28.80;16.20;;;;;;;-141.28;100.00;49168.44;5134193;27;20214;-77
2022/10/12 06:25:21;;;;;;;30.17;16.17;;;;;;;-141.28;100.00;49164.53;5134250;27;20202;-77
2022/10/12 06:27:49;;;;;;;23.63;16.13;;;;;;;-141.28;100.00;49182.19;5133443;27;20209;-77
2022/10/12 06:30:16;;;;;;;29.27;15.17;;;;;;;-141.28;100.00;49209.66;5134903;27;20209;-77
2022/10/12 06:32:44;;;;;;;30.40;16.83;;;;;;;-141.28;100.00;49195.91;5133992;27;20209;-80
2022/10/12 06:35:16;;;;;;;25.13;17.63;;;;;;;-141.28;100.00;49176.28;5115853;27;20598;-77
2022/10/12 06:37:51;;;;;;;40.27;19.70;;;;;;;-141.28;100.00;49199.84;5134094;27;20218;-77
2022/10/12 06:40:19;;;;;;;32.33;21.00;;;;;;;-141.28;100.00;49176.28;5143985;27;20217;-76
2022/10/12 06:42:46;;;;;;;45.87;25.77;;;;;;;-141.28;100.00;49188.06;5144048;27;20575;-76
2022/10/12 06:45:13;;;;;;;38.27;22.97;;;;;;;-141.28;100.00;49205.72;5145496;27;20198;-75
2022/10/12 06:47:40;;;;;;;42.07;25.73;;;;;;;-141.28;100.00;49241.03;5144536;27;20228;-76
2022/10/12 06:50:09;;;;;;;37.67;26.07;;;;;;;-141.28;100.00;49243.00;5147144;27;20198;-75
2022/10/12 06:52:39;;;;;;;42.53;25.50;;;;;;;-141.28;100.00;49246.94;5133836;27;20210;-78
2022/10/12 06:55:07;;;;;;;40.33;26.90;;;;;;;-141.28;100.00;49266.56;5133751;27;20204;-76
2022/10/12 06:57:36;;;;;;;30.33;18.53;;;;;;;-141.28;100.00;49264.59;5134018;27;20229;-78
2022/10/12 07:00:04;;;;;;;34.60;20.03;;;;;;;-141.28;100.00;49282.25;5133318;27;20205;-77
2022/10/12 07:02:31;;;;;;;36.03;19.23;;;;;;;-141.28;100.00;49294.03;5133256;27;20240;-76
2022/10/12 07:04:58;;;;;;;28.10;16.23;;;;;;;-141.28;100.00;49311.69;5132658;27;20209;-76
2022/10/12 07:07:25;;;;;;;24.20;15.37;;;;;;;-141.28;100.00;49305.78;5115061;27;20254;-77
2022/10/12 07:09:55;;;;;;;30.17;16.70;;;;;;;-141.28;100.00;49313.66;5133535;27;20209;-76
2022/10/12 07:15:12;;;;;;;25.20;15.70;;;;;;;-141.28;100.00;49109.59;5139540;27;20198;-79
2022/10/12 07:17:39;;;;;;;27.67;15.70;;;;;;;-141.28;100.00;49137.06;5133117;27;20221;-78
2022/10/12 07:20:07;;;;;;;29.33;15.80;;;;;;;-141.28;100.00;49227.31;5133944;27;20285;-79
2022/10/12 07:22:34;;;;;;;27.43;14.80;;;;;;;-141.28;100.00;49215.53;5133185;27;20199;-75
2022/10/12 07:25:05;;;;;;;23.93;15.03;;;;;;;-141.28;100.00;49248.88;5133073;27;20210;-75
2022/10/12 07:27:32;;;;;;;26.33;14.40;;;;;;;-141.28;100.00;49156.66;5135082;27;20201;-76
2022/10/12 07:30:00;;;;;;;26.77;15.33;;;;;;;-141.28;100.00;49188.06;5136044;27;20219;-77
2022/10/12 07:32:27;;;;;;;20.77;14.50;;;;;;;-141.28;100.00;49036.97;5135022;27;20198;-76
2022/10/12 07:34:55;;;;;;;31.77;15.40;;;;;;;-141.28;100.00;49188.06;5133982;27;20196;-77
2022/10/12 07:37:23;;;;;;;32.10;16.80;;;;;;;-141.28;100.00;49188.06;5133089;27;20250;-77
2022/10/12 07:39:55;;;;;;;31.37;15.77;;;;;;;-141.28;100.00;49070.34;5132925;27;20202;-80
2022/10/12 07:42:24;;;;;;;27.97;14.30;;;;;;;-141.28;100.00;49168.44;5133341;27;20668;-77
2022/10/12 07:44:50;;;;;;;21.67;14.13;;;;;;;-141.28;100.00;49129.19;5133634;27;20274;-79
2022/10/12 07:47:18;;;;;;;29.90;15.37;;;;;;;-141.28;100.00;49158.63;5132991;28;20202;-80
2022/10/12 07:49:45;;;;;;;23.77;14.93;;;;;;;-141.28;100.00;49160.59;5132980;27;20581;-77
2022/10/12 07:52:12;;;;;;;21.43;14.20;;;;;;;-141.28;100.00;49095.84;5132424;27;20190;-78
2022/10/12 07:54:39;;;;;;;26.93;15.10;;;;;;;-141.28;100.00;49168.44;5113325;28;20286;-79
2022/10/12 07:57:08;;;;;;;26.17;15.27;;;;;;;-141.28;100.00;49180.22;5132591;27;20579;-80
2022/10/12 07:59:36;;;;;;;24.87;15.20;;;;;;;-141.28;100.00;49199.84;5132664;28;20238;-79
2022/10/12 08:02:03;;;;;;;26.87;15.17;;;;;;;-141.28;100.00;49174.34;5132297;28;20205;-76
2022/10/12 08:04:31;;;;;;;27.83;15.33;;;;;;;-141.28;100.00;49195.91;5132126;28;20202;-80
2022/10/12 08:06:59;;;;;;;25.07;15.10;;;;;;;-141.28;100.00;49205.72;5132078;28;20233;-79
2022/10/12 08:09:26;;;;;;;31.97;17.03;;;;;;;-141.28;100.00;49231.22;5123478;28;20225;-77
2022/10/12 08:11:54;;;;;;;31.13;15.63;;;;;;;-141.28;100.00;49239.09;5128327;28;20285;-78
2022/10/12 08:14:22;;;;;;;27.77;15.87;;;;;;;-141.28;100.00;49243.00;5132993;28;20285;-78
2022/10/12 08:16:50;;;;;;;28.67;15.87;;;;;;;-141.28;100.00;49250.84;5133945;27;20262;-79
2022/10/12 08:19:17;;;;;;;30.73;16.27;;;;;;;-141.28;100.00;49237.13;5136497;27;20226;-81
2022/10/12 08:21:44;;;;;;;22.03;15.53;;;;;;;-141.28;100.00;49217.50;5139510;27;20612;-77
2022/10/12 08:24:12;;;;;;;24.40;15.90;;;;;;;-141.28;100.00;48997.75;5142095;27;20198;-77
2022/10/12 08:26:39;;;;;;;27.60;15.47;;;;;;;-141.28;100.00;49211.59;5142909;27;20687;-76
2022/10/12 08:29:07;;;;;;;29.17;16.00;;;;;;;-141.28;100.00;49211.59;5136466;27;20209;-76
2022/10/12 08:31:34;;;;;;;24.23;15.93;;;;;;;-141.28;100.00;49199.84;5136751;27;20202;-77
2022/10/12 08:34:04;;;;;;;22.17;14.40;;;;;;;-141.28;100.00;49213.56;5137201;27;20210;-80
2022/10/12 08:36:33;;;;;;;26.23;14.73;;;;;;;-141.28;100.00;49213.56;5136313;27;20205;-77
2022/10/12 08:39:00;;;;;;;26.87;15.63;;;;;;;-141.28;100.00;49203.75;5136268;27;20230;-77
2022/10/12 08:41:40;;;;;;;23.93;14.57;;;;;;;-141.28;100.00;49215.53;5136522;27;20202;-75
2022/10/12 08:44:22;;;;;;;25.47;14.83;;;;;;;-141.28;100.00;49227.31;5146231;27;20735;-79
2022/10/12 08:46:50;;;;;;;25.73;14.93;;;;;;;-141.28;100.00;49195.91;5141021;27;20206;-78
2022/10/12 08:49:22;;;;;;;27.67;14.30;;;;;;;-141.28;100.00;49215.53;5136192;27;20217;-77
2022/10/12 08:51:57;;;;;;;18.80;13.63;;;;;;;-141.28;100.00;49199.84;5136202;27;20213;-77
2022/10/12 08:54:29;;;;;;;24.37;14.80;;;;;;;-141.28;100.00;49235.16;5136153;27;20202;-77
2022/10/12 08:56:57;;;;;;;30.20;13.73;;;;;;;-141.28;100.00;49239.09;5135742;27;20226;-80
2022/10/12 08:59:26;;;;;;;28.43;14.87;;;;;;;-141.28;100.00;49231.22;5135849;27;20229;-77
2022/10/12 09:02:06;;;;;;;22.93;14.60;;;;;;;-141.28;100.00;49258.69;5122375;27;20194;-79
2022/10/12 09:04:46;;;;;;;24.20;14.27;;;;;;;-141.28;100.00;49317.56;5135259;27;20680;-75
2022/10/12 09:07:19;;;;;;;19.23;14.10;;;;;;;-141.28;100.00;49272.44;5135939;27;20230;-79
2022/10/12 09:09:56;;;;;;;27.17;15.27;;;;;;;-141.28;100.00;49260.66;5135829;27;20202;-79
2022/10/12 09:12:36;;;;;;;28.73;15.67;;;;;;;-141.28;100.00;49272.44;5125393;27;20198;-78
2022/10/12 09:15:10;;;;;;;25.97;14.60;;;;;;;-141.28;100.00;49266.56;5135803;27;20686;-79
2022/10/12 09:17:45;;;;;;;22.03;15.10;;;;;;;-141.28;100.00;49264.59;5135533;27;20289;-77
2022/10/12 09:20:19;;;;;;;22.20;14.27;;;;;;;-141.28;100.00;49282.25;5122855;27;20201;-77
2022/10/12 09:22:50;;;;;;;28.70;15.43;;;;;;;-141.28;100.00;49280.28;5134889;27;20202;-77
2022/10/12 09:25:18;;;;;;;20.57;15.10;;;;;;;-141.28;100.00;49329.34;5135370;27;20259;-77
2022/10/12 09:27:48;;;;;;;24.67;15.97;;;;;;;-141.28;100.00;49341.13;5129044;27;20718;-77
2022/10/12 09:30:19;;;;;;;25.93;14.20;;;;;;;-141.28;100.00;49392.13;5136418;27;20203;-77
2022/10/12 09:33:13;;;;;;;25.23;15.83;;;;;;;-141.28;100.00;49392.13;5135455;27;20660;-80
2022/10/12 09:35:45;;;;;;;31.40;17.30;;;;;;;-141.28;100.00;49372.50;5113446;27;20237;-78
2022/10/12 09:38:15;;;;;;;23.63;15.83;;;;;;;-141.28;100.00;49325.41;5134768;27;20218;-76
2022/10/12 09:40:43;;;;;;;29.10;15.23;;;;;;;-141.28;100.00;49415.69;5122137;27;20198;-77
2022/10/12 09:43:10;;;;;;;25.03;15.30;;;;;;;-141.28;100.00;49451.00;5135265;27;20664;-78
2022/10/12 09:45:38;;;;;;;26.93;16.27;;;;;;;-141.28;100.00;49492.22;5135008;27;20209;-77
2022/10/12 09:48:19;;;;;;;25.27;15.40;;;;;;;-141.28;100.00;49502.03;5134977;27;20206;-77
2022/10/12 09:50:55;;;;;;;26.17;15.23;;;;;;;-141.28;100.00;49537.34;5135921;27;20631;-78
2022/10/12 09:53:27;;;;;;;24.67;14.07;;;;;;;-141.28;100.00;49456.88;5135452;27;20213;-76
2022/10/12 09:56:07;;;;;;;24.37;14.30;;;;;;;-141.28;100.00;49596.22;5134916;27;20226;-76
2022/10/12 09:58:51;;;;;;;27.73;15.27;;;;;;;-141.28;100.00;49611.91;5135131;27;20676;-76
2022/10/12 10:01:24;;;;;;;21.93;13.60;;;;;;;-141.28;100.00;49588.34;5135313;27;20589;-78
2022/10/12 10:04:09;;;;;;;24.10;13.77;;;;;;;-141.28;100.00;49568.75;5134865;27;20322;-77
2022/10/12 10:06:39;;;;;;;19.13;11.03;;;;;;;-141.28;100.00;49607.97;5136173;27;20236;-79
2022/10/12 10:09:06;;;;;;;26.00;13.63;;;;;;;-141.28;100.00;49647.22;5136873;27;20199;-76
2022/10/12 10:11:34;;;;;;;21.83;13.73;;;;;;;-141.28;100.00;49662.94;5145782;27;20649;-76
2022/10/12 10:14:02;;;;;;;22.70;13.70;;;;;;;-141.28;100.00;49655.09;5138493;27;20206;-76
2022/10/12 10:16:30;;;;;;;28.40;13.73;;;;;;;-141.28;100.00;49653.13;5143515;27;20226;-76
2022/10/12 10:19:00;;;;;;;20.23;12.20;;;;;;;-141.28;100.00;49674.72;5142917;27;20846;-76
2022/10/12 10:21:34;;;;;;;15.07;11.73;;;;;;;-141.28;100.00;49706.09;5144032;27;20661;-77
2022/10/12 10:24:04;;;;;;;21.00;11.87;;;;;;;-141.28;100.00;49706.09;5138175;27;20251;-75
2022/10/12 10:26:51;;;;;;;21.07;12.10;;;;;;;-141.28;100.00;49755.16;5135309;27;20672;-77
2022/10/12 10:29:30;;;;;;;21.67;11.83;;;;;;;-141.28;100.00;49737.50;5116424;27;20578;-80
2022/10/12 10:32:10;;;;;;;15.43;11.17;;;;;;;-141.28;100.00;49770.88;5135666;27;20226;-75
2022/10/12 10:34:38;;;;;;;19.57;12.30;;;;;;;-141.28;100.00;49788.53;5136046;27;20220;-75
2022/10/12 10:37:06;;;;;;;18.30;11.67;;;;;;;-141.28;100.00;49812.06;5135586;27;20206;-79
2022/10/12 10:39:45;;;;;;;19.57;11.60;;;;;;;-141.28;100.00;49890.56;5134772;27;20234;-75
2022/10/12 10:42:19;;;;;;;20.07;11.87;;;;;;;-141.28;100.00;49949.44;5135136;27;20210;-76
2022/10/12 10:44:49;;;;;;;20.47;11.53;;;;;;;-141.28;100.00;49941.59;5135377;27;20198;-78
2022/10/12 10:47:17;;;;;;;18.37;11.30;;;;;;;-141.28;100.00;49973.00;5136027;27;20743;-76
2022/10/12 10:49:48;;;;;;;29.87;12.33;;;;;;;-141.28;100.00;50008.34;5134674;27;20242;-79
2022/10/12 10:52:23;;;;;;;24.37;11.87;;;;;;;-141.28;100.00;50000.47;5133558;27;20202;-76
2022/10/12 10:55:16;;;;;;;21.17;12.23;;;;;;;-141.28;100.00;50020.09;5121616;27;20277;-79
2022/10/12 10:57:48;;;;;;;16.50;10.40;;;;;;;-141.28;100.00;50000.47;5133630;27;20217;-81
2022/10/12 11:00:19;;;;;;;14.37;11.03;;;;;;;-141.28;100.00;49933.75;5133928;27;20255;-76
2022/10/12 11:02:51;;;;;;;21.27;11.33;;;;;;;-141.28;100.00;49923.94;5133873;27;20660;-78
2022/10/12 11:05:23;;;;;;;19.03;11.47;;;;;;;-141.28;100.00;49902.34;5133740;27;20266;-79
2022/10/12 11:07:53;;;;;;;15.60;10.67;;;;;;;-141.28;100.00;49902.34;5133750;27;20222;-80
2022/10/12 11:10:29;;;;;;;19.47;10.97;;;;;;;-141.28;100.00;49906.28;5133648;27;20213;-78
2022/10/12 11:13:02;;;;;;;21.97;11.50;;;;;;;-141.28;100.00;49882.72;5133417;27;20201;-79
2022/10/12 11:15:36;;;;;;;16.67;11.00;;;;;;;-141.28;100.00;49870.94;5133490;27;20275;-76
2022/10/12 11:18:14;;;;;;;17.53;11.93;;;;;;;-141.28;100.00;49859.19;5132967;27;20194;-77